createdAt,value
2023-05-24T00:02:21.642Z,99.90
2023-05-24T00:04:49.565Z,99.90
2023-05-24T00:07:16.688Z,99.90
2023-05-24T00:09:43.739Z,99.90
2023-05-24T00:12:10.943Z,99.90
2023-05-24T00:14:38.057Z,99.90
2023-05-24T00:17:05.449Z,99.90
2023-05-24T00:19:32.423Z,99.90
2023-05-24T00:21:59.498Z,99.90
2023-05-24T00:24:26.317Z,99.90
2023-05-24T00:26:53.501Z,99.90
2023-05-24T00:29:20.397Z,99.90
2023-05-24T00:31:47.449Z,99.90
2023-05-24T00:34:14.362Z,99.90
2023-05-24T00:36:41.409Z,99.90
2023-05-24T00:39:08.535Z,99.90
2023-05-24T00:41:35.532Z,99.90
2023-05-24T00:44:02.518Z,99.90
2023-05-24T00:46:32.179Z,99.90
2023-05-24T00:49:01.532Z,99.90
2023-05-24T00:51:29.300Z,99.90
2023-05-24T00:53:56.924Z,99.90
2023-05-24T00:56:24.361Z,99.90
2023-05-24T00:58:54.936Z,99.90
2023-05-24T01:01:28.921Z,99.90
2023-05-24T01:03:57.549Z,99.90
2023-05-24T01:06:27.234Z,99.90
2023-05-24T01:09:09.509Z,99.90
2023-05-24T01:11:54.079Z,99.90
2023-05-24T01:14:50.754Z,99.90
2023-05-24T01:17:52.514Z,99.90
2023-05-24T01:20:22.829Z,99.90
2023-05-24T01:23:05.918Z,99.90
2023-05-24T01:26:01.009Z,99.90
2023-05-24T01:28:28.544Z,99.90
2023-05-24T01:30:56.313Z,99.90
2023-05-24T01:33:23.317Z,99.90
2023-05-24T01:35:50.421Z,99.90
2023-05-24T01:38:17.357Z,99.90
2023-05-24T01:40:47.640Z,99.90
2023-05-24T01:43:42.586Z,99.90
2023-05-24T01:46:25.556Z,99.90
2023-05-24T01:49:19.279Z,99.90
2023-05-24T01:52:03.591Z,99.90
2023-05-24T01:54:36.712Z,99.90
2023-05-24T01:57:07.709Z,99.90
2023-05-24T01:59:36.269Z,99.90
2023-05-24T02:02:03.450Z,99.90
2023-05-24T02:04:30.938Z,99.90
2023-05-24T02:07:01.103Z,99.90
2023-05-24T02:09:28.196Z,99.90
2023-05-24T02:11:55.450Z,99.90
2023-05-24T02:14:22.416Z,99.90
2023-05-24T02:16:50.917Z,99.90
2023-05-24T02:19:21.546Z,99.90
2023-05-24T02:21:48.714Z,99.90
2023-05-24T02:24:16.610Z,99.90
2023-05-24T02:26:43.608Z,99.90
2023-05-24T02:29:10.848Z,99.90
2023-05-24T02:31:37.947Z,99.90
2023-05-24T02:34:04.854Z,99.90
2023-05-24T02:36:32.773Z,99.90
2023-05-24T02:38:59.972Z,99.90
2023-05-24T02:41:27.056Z,99.90
2023-05-24T02:43:54.097Z,99.90
2023-05-24T02:46:21.221Z,99.90
2023-05-24T02:48:49.887Z,99.90
2023-05-24T02:51:17.163Z,99.90
2023-05-24T02:53:45.433Z,99.90
2023-05-24T02:56:14.052Z,99.90
2023-05-24T02:58:41.260Z,99.90
2023-05-24T03:01:08.743Z,99.90
2023-05-24T03:03:35.864Z,99.90
2023-05-24T03:06:03.401Z,99.90
2023-05-24T03:08:30.339Z,99.90
2023-05-24T03:10:57.375Z,99.90
2023-05-24T03:13:24.328Z,99.90
2023-05-24T03:15:51.264Z,99.90
2023-05-24T03:18:18.722Z,99.90
2023-05-24T03:20:45.916Z,99.90
2023-05-24T03:23:12.822Z,99.90
2023-05-24T03:25:39.792Z,99.90
2023-05-24T03:28:07.310Z,99.90
2023-05-24T03:30:37.668Z,99.90
2023-05-24T03:33:05.033Z,99.90
2023-05-24T03:35:32.128Z,99.90
2023-05-24T03:37:59.033Z,99.90
2023-05-24T03:40:26.083Z,99.90
2023-05-24T03:42:53.429Z,99.90
2023-05-24T03:45:34.657Z,99.90
2023-05-24T03:48:06.173Z,99.90
2023-05-24T03:50:38.513Z,99.90
2023-05-24T03:53:05.847Z,99.90
2023-05-24T03:55:32.712Z,99.90
2023-05-24T03:57:59.645Z,99.90
2023-05-24T04:00:26.534Z,99.90
2023-05-24T04:02:53.687Z,99.90
2023-05-24T04:05:20.694Z,99.90
2023-05-24T04:07:47.930Z,99.90
2023-05-24T04:10:14.911Z,99.90
2023-05-24T04:12:42.139Z,99.90
2023-05-24T04:15:14.847Z,99.90
2023-05-24T04:17:43.821Z,99.90
2023-05-24T04:20:12.413Z,99.90
2023-05-24T04:22:39.886Z,99.90
2023-05-24T04:25:07.842Z,99.90
2023-05-24T04:27:36.528Z,99.90
2023-05-24T04:30:06.057Z,99.90
2023-05-24T04:32:33.210Z,99.90
2023-05-24T04:35:02.721Z,99.90
2023-05-24T04:37:31.802Z,99.90
2023-05-24T04:39:59.852Z,99.90
2023-05-24T04:42:32.571Z,99.90
2023-05-24T04:45:00.229Z,99.90
2023-05-24T04:47:27.238Z,99.90
2023-05-24T04:49:54.458Z,99.90
2023-05-24T04:52:21.477Z,99.90
2023-05-24T04:54:49.588Z,99.90
2023-05-24T04:57:17.378Z,99.90
2023-05-24T04:59:44.471Z,99.90
2023-05-24T05:02:11.479Z,99.90
2023-05-24T05:04:38.586Z,99.90
2023-05-24T05:07:05.791Z,99.90
2023-05-24T05:09:32.769Z,99.90
2023-05-24T05:11:59.924Z,99.90
2023-05-24T05:14:26.953Z,99.90
2023-05-24T05:16:54.011Z,99.90
2023-05-24T05:19:21.356Z,99.90
2023-05-24T05:21:48.314Z,99.90
2023-05-24T05:24:16.977Z,99.90
2023-05-24T05:26:44.024Z,99.90
2023-05-24T05:29:10.993Z,99.90
2023-05-24T05:31:38.041Z,99.90
2023-05-24T05:34:05.226Z,99.90
2023-05-24T05:36:32.409Z,99.90
2023-05-24T05:38:59.463Z,99.90
2023-05-24T05:41:26.495Z,99.90
2023-05-24T05:43:53.466Z,99.90
2023-05-24T05:46:22.441Z,99.90
2023-05-24T05:48:49.426Z,99.90
2023-05-24T05:51:16.429Z,99.90
2023-05-24T05:53:43.354Z,99.90
2023-05-24T05:56:10.244Z,99.90
2023-05-24T05:58:39.006Z,99.90
2023-05-24T06:01:05.986Z,99.90
2023-05-24T06:03:32.981Z,99.90
2023-05-24T06:06:00.032Z,99.90
2023-05-24T06:08:27.517Z,99.90
2023-05-24T06:10:54.369Z,99.90
2023-05-24T06:13:30.112Z,99.90
2023-05-24T06:16:01.448Z,99.90
2023-05-24T06:18:34.705Z,99.90
2023-05-24T06:21:01.709Z,99.90
2023-05-24T06:23:33.506Z,99.90
2023-05-24T06:26:01.642Z,99.90
2023-05-24T06:28:28.591Z,99.90
2023-05-24T06:30:55.582Z,99.90
2023-05-24T06:33:22.652Z,99.90
2023-05-24T06:35:49.656Z,99.90
2023-05-24T06:38:18.294Z,99.90
2023-05-24T06:40:45.511Z,99.90
2023-05-24T06:43:12.407Z,99.90
2023-05-24T06:45:39.347Z,99.90
2023-05-24T06:48:06.572Z,99.90
2023-05-24T06:50:33.627Z,99.90
2023-05-24T06:53:00.493Z,99.90
2023-05-24T06:55:30.435Z,99.90
2023-05-24T06:57:57.909Z,99.90
2023-05-24T07:00:24.899Z,99.90
2023-05-24T07:02:51.874Z,99.90
2023-05-24T07:05:19.180Z,99.90
2023-05-24T07:07:49.522Z,99.90
2023-05-24T07:10:16.733Z,99.90
2023-05-24T07:12:43.650Z,99.90
2023-05-24T07:15:10.788Z,99.90
2023-05-24T07:17:37.746Z,99.90
2023-05-24T07:20:10.544Z,99.90
2023-05-24T07:22:37.787Z,99.90
2023-05-24T07:25:05.547Z,99.90
2023-05-24T07:27:32.413Z,99.90
2023-05-24T07:29:59.346Z,99.90
2023-05-24T07:32:26.992Z,99.90
2023-05-24T07:34:54.097Z,99.90
2023-05-24T07:37:24.123Z,99.90
2023-05-24T07:39:52.215Z,99.90
2023-05-24T07:42:19.554Z,99.90
2023-05-24T07:44:47.262Z,99.90
2023-05-24T07:47:14.123Z,99.90
2023-05-24T07:49:41.118Z,99.90
2023-05-24T07:52:17.207Z,99.90
2023-05-24T07:54:44.116Z,99.90
2023-05-24T07:57:11.011Z,99.90
2023-05-24T07:59:37.893Z,99.90
2023-05-24T08:02:05.761Z,99.90
2023-05-24T08:04:35.891Z,99.90
2023-05-24T08:07:03.821Z,99.90
2023-05-24T08:09:33.880Z,99.90
2023-05-24T08:12:01.290Z,99.90
2023-05-24T08:14:28.384Z,99.90
2023-05-24T08:16:55.372Z,99.90
2023-05-24T08:19:22.331Z,98.50
2023-05-24T08:21:49.786Z,97.10
2023-05-24T08:24:17.129Z,95.10
2023-05-24T08:26:45.304Z,94.50
2023-05-24T08:29:12.471Z,94.60
2023-05-24T08:31:39.493Z,95.00
2023-05-24T08:34:06.644Z,94.40
2023-05-24T08:36:33.524Z,92.00
2023-05-24T08:39:00.500Z,87.30
2023-05-24T08:41:28.722Z,83.30
2023-05-24T08:44:00.096Z,83.00
2023-05-24T08:46:27.960Z,79.40
2023-05-24T08:48:57.822Z,75.80
2023-05-24T08:51:24.851Z,75.80
2023-05-24T08:53:52.551Z,75.10
2023-05-24T08:56:19.529Z,71.80
2023-05-24T08:58:47.375Z,70.30
2023-05-24T09:01:16.674Z,67.60
2023-05-24T09:03:46.297Z,71.00
2023-05-24T09:06:16.205Z,69.20
2023-05-24T09:08:44.005Z,71.20
2023-05-24T09:11:12.187Z,72.30
2023-05-24T09:13:39.918Z,70.90
2023-05-24T09:16:07.279Z,65.10
2023-05-24T09:18:34.579Z,66.30
2023-05-24T09:21:01.419Z,65.50
2023-05-24T09:23:30.893Z,65.50
2023-05-24T09:25:57.817Z,67.40
2023-05-24T09:28:25.122Z,67.10
2023-05-24T09:30:59.891Z,69.60
2023-05-24T09:33:34.576Z,70.80
2023-05-24T09:36:04.611Z,70.50
2023-05-24T09:38:31.699Z,68.90
2023-05-24T09:41:06.566Z,67.50
2023-05-24T09:43:36.290Z,70.10
2023-05-24T09:46:04.850Z,70.10
2023-05-24T09:48:32.249Z,72.50
2023-05-24T09:51:04.198Z,73.10
2023-05-24T09:53:34.014Z,73.20
2023-05-24T09:56:04.040Z,71.80
2023-05-24T09:58:33.580Z,71.50
2023-05-24T10:01:08.899Z,71.70
2023-05-24T10:03:38.594Z,70.50
2023-05-24T10:06:08.014Z,72.00
2023-05-24T10:08:36.240Z,73.80
2023-05-24T10:11:04.869Z,75.30
2023-05-24T10:13:36.790Z,77.10
2023-05-24T10:16:04.595Z,78.40
2023-05-24T10:18:31.772Z,78.00
2023-05-24T10:21:00.857Z,79.70
2023-05-24T10:23:31.530Z,80.50
2023-05-24T10:26:09.860Z,79.60
2023-05-24T10:28:42.885Z,78.80
2023-05-24T10:31:16.105Z,79.00
2023-05-24T10:33:45.596Z,80.50
2023-05-24T10:36:14.811Z,81.20
2023-05-24T10:38:41.979Z,80.40
2023-05-24T10:41:09.551Z,81.40
2023-05-24T10:43:37.987Z,83.30
2023-05-24T10:46:08.508Z,81.40
2023-05-24T10:48:37.226Z,81.40
2023-05-24T10:51:33.775Z,82.10
2023-05-24T10:54:12.987Z,82.10
2023-05-24T10:56:48.593Z,80.60
2023-05-24T10:59:37.406Z,82.90
2023-05-24T11:02:16.297Z,81.30
2023-05-24T11:04:47.284Z,79.70
2023-05-24T11:07:15.485Z,78.90
2023-05-24T11:09:52.972Z,76.30
2023-05-24T11:12:23.755Z,76.90
2023-05-24T11:14:52.589Z,74.40
2023-05-24T11:17:22.420Z,75.00
2023-05-24T11:19:56.807Z,75.00
2023-05-24T11:22:27.081Z,76.00
2023-05-24T11:24:54.197Z,75.20
2023-05-24T11:27:21.767Z,73.90
2023-05-24T11:29:49.174Z,75.50
2023-05-24T11:32:18.374Z,73.30
2023-05-24T11:34:47.619Z,71.20
2023-05-24T11:37:17.560Z,69.80
2023-05-24T11:39:51.130Z,70.30
2023-05-24T11:42:18.262Z,69.30
2023-05-24T11:44:48.334Z,70.80
2023-05-24T11:47:15.433Z,70.10
2023-05-24T11:49:42.428Z,70.20
2023-05-24T11:52:09.385Z,69.60
2023-05-24T11:54:38.657Z,68.70
2023-05-24T11:57:05.956Z,68.50
2023-05-24T11:59:33.217Z,67.90
2023-05-24T12:02:03.932Z,69.30
2023-05-24T12:04:32.527Z,70.60
2023-05-24T12:06:59.768Z,71.20
2023-05-24T12:09:27.751Z,69.50
2023-05-24T12:11:55.188Z,68.10
2023-05-24T12:14:31.303Z,65.40
2023-05-24T12:16:59.279Z,64.00
2023-05-24T12:19:34.080Z,60.80
2023-05-24T12:22:06.705Z,62.60
2023-05-24T12:24:34.385Z,64.60
2023-05-24T12:27:03.423Z,62.20
2023-05-24T12:29:35.447Z,61.50
2023-05-24T12:32:03.114Z,61.90
2023-05-24T12:34:30.230Z,62.70
2023-05-24T12:36:57.194Z,64.40
2023-05-24T12:39:32.412Z,64.60
2023-05-24T12:42:01.800Z,60.10
2023-05-24T12:44:32.348Z,59.70
2023-05-24T12:47:01.634Z,57.50
2023-05-24T12:49:28.897Z,56.90
2023-05-24T12:51:57.230Z,57.20
2023-05-24T12:54:28.791Z,56.90
2023-05-24T12:56:57.850Z,55.60
2023-05-24T12:59:26.022Z,56.40
2023-05-24T13:01:53.786Z,56.80
2023-05-24T13:04:23.328Z,58.80
2023-05-24T13:06:50.587Z,60.20
2023-05-24T13:09:22.550Z,60.70
2023-05-24T13:11:50.053Z,62.00
2023-05-24T13:14:18.225Z,63.70
2023-05-24T13:16:46.100Z,66.10
2023-05-24T13:19:13.429Z,66.60
2023-05-24T13:21:40.840Z,65.00
2023-05-24T13:24:08.866Z,64.30
2023-05-24T13:26:39.016Z,65.80
2023-05-24T13:31:40.990Z,68.40
2023-05-24T13:34:13.469Z,68.00
2023-05-24T13:36:45.275Z,68.20
2023-05-24T13:39:18.374Z,70.10
2023-05-24T13:41:46.024Z,69.80
2023-05-24T13:44:14.584Z,71.70
2023-05-24T13:46:42.592Z,71.80
2023-05-24T13:49:11.151Z,73.30
2023-05-24T13:51:38.897Z,76.30
2023-05-24T13:54:07.876Z,75.70
2023-05-24T13:56:35.789Z,75.70
2023-05-24T13:59:04.663Z,76.50
2023-05-24T14:01:32.316Z,77.50
2023-05-24T14:04:01.477Z,79.70
2023-05-24T14:06:28.875Z,76.90
2023-05-24T14:08:56.288Z,76.70
2023-05-24T14:11:24.833Z,76.30
2023-05-24T14:16:22.036Z,77.50
2023-05-24T14:18:50.300Z,77.90
2023-05-24T14:21:18.801Z,75.60
2023-05-24T14:23:45.844Z,75.40
2023-05-24T14:26:16.162Z,76.40
2023-05-24T14:28:43.186Z,77.00
2023-05-24T14:31:10.175Z,78.60
2023-05-24T14:33:38.546Z,81.00
2023-05-24T14:36:05.810Z,80.30
2023-05-24T14:38:32.910Z,79.20
2023-05-24T14:41:01.761Z,78.90
2023-05-24T14:43:28.704Z,77.30
2023-05-24T14:45:55.667Z,76.00
2023-05-24T14:48:25.757Z,78.10
2023-05-24T14:50:56.376Z,77.80
2023-05-24T14:53:23.549Z,79.80
2023-05-24T14:55:50.768Z,79.50
2023-05-24T14:58:18.036Z,78.50
2023-05-24T15:00:45.318Z,77.10
2023-05-24T15:03:27.291Z,74.50
2023-05-24T15:06:05.719Z,74.50
2023-05-24T15:08:33.828Z,75.00
2023-05-24T15:11:01.620Z,76.60
2023-05-24T15:13:28.720Z,76.60
2023-05-24T15:15:57.706Z,78.20
2023-05-24T15:18:25.722Z,79.40
2023-05-24T15:20:52.752Z,80.40
2023-05-24T15:23:21.437Z,80.30
2023-05-24T15:25:49.346Z,80.00
2023-05-24T15:28:19.750Z,80.50
2023-05-24T15:30:47.316Z,81.30
2023-05-24T15:33:14.755Z,80.40
2023-05-24T15:35:42.350Z,80.80
2023-05-24T15:38:09.349Z,80.50
2023-05-24T15:40:38.684Z,79.70
2023-05-24T15:43:05.938Z,78.20
2023-05-24T15:45:33.970Z,76.60
2023-05-24T15:48:04.625Z,78.00
2023-05-24T15:50:50.613Z,83.50
2023-05-24T15:53:21.683Z,89.80
2023-05-24T15:55:49.258Z,92.10
2023-05-24T15:58:16.271Z,93.20
2023-05-24T16:00:43.621Z,93.70
2023-05-24T16:03:15.451Z,95.50
2023-05-24T16:05:42.915Z,97.90
2023-05-24T16:08:10.015Z,99.90
2023-05-24T16:10:37.047Z,99.90
2023-05-24T16:13:03.971Z,99.90
2023-05-24T16:15:33.299Z,99.90
2023-05-24T16:18:00.354Z,99.90
2023-05-24T16:20:27.698Z,99.90
2023-05-24T16:22:54.797Z,99.90
2023-05-24T16:25:21.872Z,99.90
2023-05-24T16:27:48.869Z,99.90
2023-05-24T16:30:16.339Z,99.90
2023-05-24T16:32:45.494Z,99.90
2023-05-24T16:35:12.762Z,99.90
2023-05-24T16:37:40.203Z,99.90
2023-05-24T16:40:10.444Z,99.90
2023-05-24T16:42:37.484Z,99.90
2023-05-24T16:45:05.228Z,99.90
2023-05-24T16:47:32.528Z,99.90
2023-05-24T16:49:59.534Z,99.90
2023-05-24T16:52:26.420Z,99.90
2023-05-24T16:54:53.565Z,99.90
2023-05-24T16:57:20.728Z,99.90
2023-05-24T16:59:50.613Z,99.90
2023-05-24T17:02:17.817Z,99.90
2023-05-24T17:04:44.714Z,99.90
2023-05-24T17:07:11.744Z,99.90
2023-05-24T17:09:38.684Z,99.90
2023-05-24T17:12:06.247Z,99.90
2023-05-24T17:14:33.156Z,99.90
2023-05-24T17:17:01.457Z,99.90
2023-05-24T17:19:28.676Z,99.90
2023-05-24T17:21:55.608Z,99.90
2023-05-24T17:24:25.404Z,99.90
2023-05-24T17:26:52.604Z,99.90
2023-05-24T17:29:19.491Z,99.90
2023-05-24T17:31:47.154Z,99.90
2023-05-24T17:34:16.267Z,99.90
2023-05-24T17:36:43.209Z,99.90
2023-05-24T17:39:10.556Z,99.90
2023-05-24T17:41:38.773Z,99.90
2023-05-24T17:44:06.049Z,99.90
2023-05-24T17:46:35.682Z,99.90
2023-05-24T17:49:04.533Z,99.90
2023-05-24T17:51:31.885Z,99.90
2023-05-24T17:53:59.102Z,99.90
2023-05-24T17:56:26.022Z,99.90
2023-05-24T17:58:52.936Z,99.90
2023-05-24T18:01:19.969Z,99.90
2023-05-24T18:03:47.307Z,99.90
2023-05-24T18:06:14.487Z,99.90
2023-05-24T18:08:43.999Z,99.90
2023-05-24T18:11:13.965Z,99.90
2023-05-24T18:13:42.198Z,99.90
2023-05-24T18:16:11.739Z,99.90
2023-05-24T18:18:39.245Z,99.90
2023-05-24T18:21:06.676Z,99.90
2023-05-24T18:23:37.515Z,99.90
2023-05-24T18:26:09.648Z,99.90
2023-05-24T18:28:37.691Z,99.90
2023-05-24T18:31:08.868Z,99.90
2023-05-24T18:33:39.307Z,99.90
2023-05-24T18:36:06.808Z,99.90
2023-05-24T18:38:34.905Z,99.90
2023-05-24T18:41:06.000Z,99.90
2023-05-24T18:43:33.595Z,99.90
2023-05-24T18:46:01.060Z,99.90
2023-05-24T18:48:28.170Z,99.90
2023-05-24T18:50:55.194Z,99.90
2023-05-24T18:53:22.125Z,99.90
2023-05-24T18:55:49.017Z,99.90
2023-05-24T18:58:16.101Z,99.90
2023-05-24T19:00:43.134Z,99.90
2023-05-24T19:03:12.153Z,99.90
2023-05-24T19:05:42.622Z,99.90
2023-05-24T19:08:11.044Z,99.90
2023-05-24T19:10:38.133Z,99.90
2023-05-24T19:13:07.597Z,99.90
2023-05-24T19:15:37.795Z,99.90
2023-05-24T19:18:05.277Z,99.90
2023-05-24T19:20:32.176Z,99.90
2023-05-24T19:22:59.371Z,99.90
2023-05-24T19:25:26.457Z,99.90
2023-05-24T19:30:23.302Z,99.90
2023-05-24T19:32:50.267Z,99.90
2023-05-24T19:35:17.354Z,99.90
2023-05-24T19:37:44.214Z,99.90
2023-05-24T19:40:11.698Z,99.90
2023-05-24T19:42:38.632Z,99.90
2023-05-24T19:45:06.348Z,99.90
2023-05-24T19:47:36.220Z,99.90
2023-05-24T19:50:03.315Z,99.90
2023-05-24T19:52:30.265Z,99.90
2023-05-24T19:54:57.366Z,99.90
2023-05-24T19:57:24.337Z,99.90
2023-05-24T19:59:51.223Z,99.90
2023-05-24T20:02:18.290Z,99.90
2023-05-24T20:04:45.238Z,99.90
2023-05-24T20:07:12.222Z,99.90
2023-05-24T20:09:39.530Z,99.90
2023-05-24T20:12:06.695Z,99.90
2023-05-24T20:14:33.792Z,99.90
2023-05-24T20:17:01.305Z,99.90
2023-05-24T20:19:28.464Z,99.90
2023-05-24T20:21:55.593Z,99.90
2023-05-24T20:24:22.514Z,99.90
2023-05-24T20:26:49.354Z,99.90
2023-05-24T20:29:16.367Z,99.90
2023-05-24T20:31:43.261Z,99.90
2023-05-24T20:34:10.151Z,99.90
2023-05-24T20:36:37.032Z,99.90
2023-05-24T20:39:04.194Z,99.90
2023-05-24T20:41:31.346Z,99.90
2023-05-24T20:43:58.157Z,99.90
2023-05-24T20:46:25.462Z,99.90
2023-05-24T20:48:53.998Z,99.90
2023-05-24T20:51:23.071Z,99.90
2023-05-24T20:53:52.185Z,99.90
2023-05-24T20:56:20.382Z,99.90
2023-05-24T20:58:49.221Z,99.90
2023-05-24T21:01:16.751Z,99.90
2023-05-24T21:03:43.744Z,99.90
2023-05-24T21:06:10.864Z,99.90
2023-05-24T21:08:38.507Z,99.90
2023-05-24T21:11:05.467Z,99.90
2023-05-24T21:13:32.302Z,99.90
2023-05-24T21:15:59.393Z,99.90
2023-05-24T21:18:26.264Z,99.90
2023-05-24T21:20:53.070Z,99.90
2023-05-24T21:23:19.979Z,99.90
2023-05-24T21:25:46.897Z,99.90
2023-05-24T21:28:14.667Z,99.90
2023-05-24T21:30:41.591Z,99.90
2023-05-24T21:33:08.961Z,99.90
2023-05-24T21:35:37.460Z,99.90
2023-05-24T21:38:04.544Z,99.90
2023-05-24T21:40:31.441Z,99.90
2023-05-24T21:42:58.329Z,99.90
2023-05-24T21:45:25.320Z,99.90
2023-05-24T21:47:52.229Z,99.90
2023-05-24T21:50:19.284Z,99.90
2023-05-24T21:52:46.155Z,99.90
2023-05-24T21:55:13.040Z,99.90
2023-05-24T21:57:39.928Z,99.90
2023-05-24T22:00:08.658Z,99.90
2023-05-24T22:02:35.798Z,99.90
2023-05-24T22:05:05.259Z,99.90
2023-05-24T22:07:32.334Z,99.90
2023-05-24T22:09:59.456Z,99.90
2023-05-24T22:12:26.532Z,99.90
2023-05-24T22:14:53.466Z,99.90
2023-05-24T22:17:22.240Z,99.90
2023-05-24T22:19:49.538Z,99.90
2023-05-24T22:22:19.562Z,99.90
2023-05-24T22:24:47.339Z,99.90
2023-05-24T22:27:14.307Z,99.90
2023-05-24T22:29:41.389Z,99.90
2023-05-24T22:32:08.539Z,99.90
2023-05-24T22:34:35.656Z,99.90
2023-05-24T22:37:02.552Z,99.90
2023-05-24T22:39:29.421Z,99.90
2023-05-24T22:41:56.717Z,99.90
2023-05-24T22:44:23.693Z,99.90
2023-05-24T22:46:53.949Z,99.90
2023-05-24T22:49:20.934Z,99.90
2023-05-24T22:51:50.684Z,99.90
2023-05-24T22:54:17.964Z,99.90
2023-05-24T22:56:46.083Z,99.90
2023-05-24T22:59:13.533Z,99.90
2023-05-24T23:01:40.657Z,99.90
2023-05-24T23:04:20.536Z,99.90
2023-05-24T23:06:53.550Z,99.90
2023-05-24T23:09:34.919Z,99.90
2023-05-24T23:12:08.200Z,99.90
2023-05-24T23:14:39.997Z,99.90
2023-05-24T23:17:10.392Z,99.90
2023-05-24T23:19:42.477Z,99.90
2023-05-24T23:22:14.057Z,99.90
2023-05-24T23:25:37.354Z,99.90
2023-05-24T23:28:04.608Z,99.90
2023-05-24T23:30:31.681Z,99.90
2023-05-24T23:32:59.551Z,99.90
2023-05-24T23:35:26.558Z,99.90
2023-05-24T23:37:53.878Z,99.90
2023-05-24T23:40:21.264Z,99.90
2023-05-24T23:42:49.295Z,99.90
2023-05-24T23:45:16.599Z,99.90
2023-05-24T23:47:43.959Z,99.90
2023-05-24T23:50:11.530Z,99.90
2023-05-24T23:52:38.596Z,99.90
2023-05-24T23:55:06.432Z,99.90
2023-05-24T23:57:33.558Z,99.90
